createdAt,value
2023-01-17T00:00:18.445Z,4.08
2023-01-17T00:01:18.481Z,3.95
2023-01-17T00:02:18.290Z,3.91
2023-01-17T00:03:18.240Z,3.94
2023-01-17T00:04:18.285Z,4.05
2023-01-17T00:05:18.221Z,3.92
2023-01-17T00:06:18.982Z,3.92
2023-01-17T00:07:18.289Z,3.94
2023-01-17T00:12:54.304Z,3.80
2023-01-17T00:13:54.763Z,3.77
2023-01-17T00:14:54.297Z,3.78
2023-01-17T00:15:54.167Z,3.83
2023-01-17T00:16:54.113Z,3.70
2023-01-17T00:18:02.022Z,3.74
2023-01-17T00:18:54.247Z,3.74
2023-01-17T00:19:54.137Z,3.63
2023-01-17T00:20:55.448Z,3.68
2023-01-17T00:21:55.576Z,3.76
2023-01-17T00:22:55.267Z,3.73
2023-01-17T00:23:55.276Z,3.69
2023-01-17T00:24:55.161Z,3.73
2023-01-17T00:25:55.246Z,3.69
2023-01-17T00:26:55.174Z,3.68
2023-01-17T00:27:55.178Z,3.77
2023-01-17T00:28:55.150Z,3.68
2023-01-17T00:29:55.300Z,3.74
2023-01-17T00:34:36.054Z,3.80
2023-01-17T00:43:10.202Z,3.78
2023-01-17T00:44:10.266Z,3.78
2023-01-17T00:45:11.473Z,3.81
2023-01-17T00:46:11.343Z,3.81
2023-01-17T00:47:11.238Z,3.77
2023-01-17T00:48:11.287Z,3.76
2023-01-17T00:49:11.422Z,3.83
2023-01-17T00:50:11.246Z,3.83
2023-01-17T00:51:11.176Z,3.81
2023-01-17T00:52:11.189Z,3.78
2023-01-17T00:56:51.706Z,3.80
2023-01-17T00:57:53.123Z,3.70
2023-01-17T00:58:51.713Z,3.76
2023-01-17T00:59:52.393Z,3.74
2023-01-17T01:03:38.848Z,3.99
2023-01-17T01:04:38.392Z,3.92
2023-01-17T01:05:38.178Z,3.94
2023-01-17T01:06:38.211Z,3.92
2023-01-17T01:07:38.127Z,3.81
2023-01-17T01:08:38.089Z,3.95
2023-01-17T01:09:38.078Z,3.88
2023-01-17T01:10:38.016Z,3.81
2023-01-17T01:11:38.021Z,3.76
2023-01-17T01:12:38.018Z,3.78
2023-01-17T01:13:39.209Z,3.68
2023-01-17T01:14:39.661Z,3.77
2023-01-17T01:15:39.197Z,3.80
2023-01-17T01:16:39.187Z,3.77
2023-01-17T01:17:39.204Z,3.78
2023-01-17T01:18:39.269Z,3.81
2023-01-17T01:19:39.218Z,3.77
2023-01-17T01:20:39.213Z,3.77
2023-01-17T01:21:39.100Z,3.73
2023-01-17T01:22:39.060Z,3.66
2023-01-17T01:23:39.104Z,3.69
2023-01-17T01:24:39.265Z,3.69
2023-01-17T01:25:39.059Z,3.66
2023-01-17T01:26:39.064Z,3.58
2023-01-17T01:27:39.040Z,3.62
2023-01-17T01:28:39.003Z,3.65
2023-01-17T01:29:39.087Z,3.68
2023-01-17T01:30:39.156Z,3.68
2023-01-17T01:31:39.101Z,3.62
2023-01-17T01:32:39.893Z,3.55
2023-01-17T01:33:39.016Z,3.60
2023-01-17T01:34:38.960Z,3.47
2023-01-17T01:35:39.026Z,3.63
2023-01-17T01:36:38.988Z,3.60
2023-01-17T01:37:38.965Z,3.53
2023-01-17T01:38:38.930Z,3.47
2023-01-17T01:39:38.994Z,3.45
2023-01-17T01:40:38.953Z,3.56
2023-01-17T01:41:38.890Z,3.55
2023-01-17T01:42:38.934Z,3.58
2023-01-17T01:43:38.909Z,3.48
2023-01-17T01:44:38.892Z,3.59
2023-01-17T01:45:38.947Z,3.51
2023-01-17T01:46:38.877Z,3.51
2023-01-17T01:47:38.847Z,3.60
2023-01-17T01:48:38.855Z,3.51
2023-01-17T01:49:38.879Z,3.59
2023-01-17T01:50:38.849Z,3.58
2023-01-17T01:51:38.908Z,3.62
2023-01-17T01:52:38.798Z,3.66
2023-01-17T01:53:38.811Z,3.69
2023-01-17T01:54:38.794Z,3.68
2023-01-17T01:55:38.985Z,3.62
2023-01-17T01:56:38.745Z,3.73
2023-01-17T01:57:38.787Z,3.70
2023-01-17T01:58:38.730Z,3.70
2023-01-17T01:59:38.768Z,3.76
2023-01-17T02:00:38.755Z,3.77
2023-01-17T02:01:38.896Z,3.65
2023-01-17T02:02:38.789Z,3.69
2023-01-17T02:03:38.715Z,3.73
2023-01-17T02:04:38.677Z,3.74
2023-01-17T02:05:38.683Z,3.65
2023-01-17T02:06:38.794Z,3.78
2023-01-17T02:07:38.645Z,3.74
2023-01-17T02:08:38.601Z,3.76
2023-01-17T02:09:39.200Z,3.80
2023-01-17T02:10:38.633Z,3.78
2023-01-17T02:11:38.580Z,3.80
2023-01-17T02:12:38.644Z,3.80
2023-01-17T02:13:38.629Z,3.77
2023-01-17T02:14:38.625Z,3.68
2023-01-17T02:15:38.521Z,3.70
2023-01-17T02:16:38.668Z,3.59
2023-01-17T02:17:38.562Z,3.66
2023-01-17T02:18:38.645Z,3.66
2023-01-17T02:19:38.602Z,3.66
2023-01-17T02:20:38.521Z,3.65
2023-01-17T02:21:38.580Z,3.66
2023-01-17T02:22:38.462Z,3.59
2023-01-17T02:23:38.563Z,3.70
2023-01-17T02:24:38.486Z,3.53
2023-01-17T02:25:38.611Z,3.59
2023-01-17T02:26:38.450Z,3.48
2023-01-17T02:27:38.446Z,3.45
2023-01-17T02:28:38.401Z,3.50
2023-01-17T02:29:38.418Z,3.48
2023-01-17T02:30:38.593Z,3.50
2023-01-17T02:31:38.427Z,3.45
2023-01-17T02:32:38.411Z,3.50
2023-01-17T02:33:38.391Z,3.56
2023-01-17T02:34:38.464Z,3.56
2023-01-17T02:35:38.364Z,3.47
2023-01-17T02:36:38.423Z,3.50
2023-01-17T02:37:39.007Z,3.37
2023-01-17T02:38:38.347Z,3.53
2023-01-17T02:39:38.888Z,3.44
2023-01-17T02:40:38.290Z,3.44
2023-01-17T02:41:38.300Z,3.56
2023-01-17T02:42:38.313Z,3.59
2023-01-17T02:43:38.327Z,3.56
2023-01-17T02:44:38.289Z,3.51
2023-01-17T02:45:38.314Z,3.66
2023-01-17T02:46:38.284Z,3.65
2023-01-17T02:47:38.222Z,3.59
2023-01-17T02:48:38.227Z,3.63
2023-01-17T02:49:38.362Z,3.65
2023-01-17T02:50:38.197Z,3.69
2023-01-17T02:51:38.232Z,3.62
2023-01-17T02:52:38.172Z,3.58
2023-01-17T02:53:38.177Z,3.65
2023-01-17T02:54:38.259Z,3.56
2023-01-17T02:55:38.386Z,3.66
2023-01-17T02:56:38.137Z,3.66
2023-01-17T02:57:38.195Z,3.63
2023-01-17T02:58:38.142Z,3.62
2023-01-17T02:59:38.159Z,3.68
2023-01-17T03:00:38.136Z,3.68
2023-01-17T03:01:38.184Z,3.74
2023-01-17T03:02:38.315Z,3.63
2023-01-17T03:03:38.093Z,3.58
2023-01-17T03:04:38.081Z,3.65
2023-01-17T03:05:38.116Z,3.65
2023-01-17T03:06:38.101Z,3.65
2023-01-17T03:07:38.264Z,3.59
2023-01-17T03:10:23.012Z,3.50
2023-01-17T03:11:23.154Z,3.65
2023-01-17T03:12:27.147Z,3.66
2023-01-17T03:13:25.075Z,3.56
2023-01-17T03:14:25.492Z,3.48
2023-01-17T03:15:31.788Z,3.60
2023-01-17T03:16:25.525Z,3.48
2023-01-17T03:17:28.807Z,3.56
2023-01-17T03:18:31.731Z,3.56
2023-01-17T03:19:29.083Z,3.51
2023-01-17T03:20:27.673Z,3.50
2023-01-17T03:21:58.210Z,3.53
2023-01-17T03:22:26.330Z,3.44
2023-01-17T03:23:24.447Z,3.42
2023-01-17T03:24:48.024Z,3.45
2023-01-17T03:25:25.072Z,3.47
2023-01-17T03:26:57.992Z,3.53
2023-01-17T03:27:25.289Z,3.47
2023-01-17T03:28:25.363Z,3.48
2023-01-17T03:31:33.873Z,3.47
2023-01-17T03:32:43.780Z,3.45
2023-01-17T03:35:01.832Z,3.45
2023-01-17T03:36:14.226Z,3.32
2023-01-17T03:37:03.329Z,3.34
2023-01-17T03:38:01.791Z,3.32
2023-01-17T03:39:06.620Z,3.37
2023-01-17T03:41:49.691Z,3.41
2023-01-17T03:42:49.731Z,3.42
2023-01-17T03:43:50.470Z,3.42
2023-01-17T03:44:49.683Z,3.47
2023-01-17T03:47:23.902Z,3.45
2023-01-17T03:48:27.535Z,3.31
2023-01-17T03:49:23.389Z,3.45
2023-01-17T03:50:27.072Z,3.34
2023-01-17T03:51:24.015Z,3.41
2023-01-17T03:52:23.332Z,3.32
2023-01-17T03:53:26.112Z,3.41
2023-01-17T03:55:03.609Z,3.36
2023-01-17T03:55:24.821Z,3.41
2023-01-17T03:56:49.497Z,3.29
2023-01-17T03:57:26.218Z,3.31
2023-01-17T03:59:06.693Z,3.44
2023-01-17T03:59:31.143Z,3.34
2023-01-17T04:02:42.835Z,3.34
2023-01-17T04:03:48.249Z,3.40
2023-01-17T04:04:43.769Z,3.40
2023-01-17T04:05:46.309Z,3.32
2023-01-17T04:06:45.418Z,3.45
2023-01-17T04:07:49.046Z,3.28
2023-01-17T04:08:48.703Z,3.37
2023-01-17T04:10:23.222Z,3.32
2023-01-17T04:10:44.821Z,3.37
2023-01-17T04:11:45.367Z,3.34
2023-01-17T04:12:44.606Z,3.41
2023-01-17T04:13:45.325Z,3.36
2023-01-17T04:17:11.640Z,3.41
2023-01-17T04:18:11.925Z,3.34
2023-01-17T04:19:14.563Z,3.31
2023-01-17T04:20:19.465Z,3.41
2023-01-17T04:21:46.748Z,3.36
2023-01-17T04:22:15.748Z,3.31
2023-01-17T04:23:12.756Z,3.28
2023-01-17T04:24:40.932Z,3.36
2023-01-17T04:25:13.053Z,3.32
2023-01-17T04:26:13.072Z,3.23
2023-01-17T04:27:45.569Z,3.31
2023-01-17T04:28:42.749Z,3.26
2023-01-17T04:29:16.770Z,3.40
2023-01-17T04:30:48.243Z,3.28
2023-01-17T04:31:46.873Z,3.19
2023-01-17T04:32:13.253Z,3.22
2023-01-17T04:33:14.992Z,3.23
2023-01-17T04:34:14.209Z,3.21
2023-01-17T04:35:21.117Z,3.23
2023-01-17T04:36:19.401Z,3.18
2023-01-17T04:37:13.751Z,3.21
2023-01-17T04:38:15.313Z,3.26
2023-01-17T04:39:14.744Z,3.28
2023-01-17T04:42:16.603Z,3.23
2023-01-17T04:43:17.133Z,3.16
2023-01-17T04:44:17.057Z,3.26
2023-01-17T04:45:52.867Z,3.22
2023-01-17T04:46:20.057Z,3.19
2023-01-17T04:47:17.922Z,3.18
2023-01-17T04:48:20.751Z,3.11
2023-01-17T04:49:22.563Z,3.16
2023-01-17T04:50:19.445Z,3.07
2023-01-17T04:51:18.725Z,3.11
2023-01-17T04:52:19.713Z,3.11
2023-01-17T04:53:17.755Z,3.01
2023-01-17T04:54:18.091Z,3.03
2023-01-17T04:55:18.428Z,3.14
2023-01-17T04:56:17.741Z,3.03
2023-01-17T04:57:18.635Z,3.16
2023-01-17T04:58:59.959Z,3.16
2023-01-17T04:59:18.429Z,3.13
2023-01-17T05:00:53.364Z,3.07
2023-01-17T05:01:18.025Z,3.04
2023-01-17T05:03:03.458Z,3.01
2023-01-17T05:03:20.296Z,2.97
2023-01-17T05:04:53.610Z,2.92
2023-01-17T05:05:20.457Z,2.97
2023-01-17T05:06:19.944Z,2.92
2023-01-17T05:07:44.368Z,2.90
2023-01-17T05:09:01.583Z,2.80
2023-01-17T05:09:56.590Z,2.90
2023-01-17T05:10:53.686Z,2.80
2023-01-17T05:11:25.247Z,2.86
2023-01-17T05:12:29.258Z,2.98
2023-01-17T05:16:45.275Z,2.80
2023-01-17T05:21:04.639Z,2.72
2023-01-17T05:22:16.559Z,2.68
2023-01-17T05:23:35.946Z,2.61
2023-01-17T05:24:12.829Z,2.67
2023-01-17T05:27:40.151Z,2.54
2023-01-17T05:28:50.550Z,2.51
2023-01-17T05:31:10.251Z,2.56
2023-01-17T05:32:13.150Z,2.50
2023-01-17T05:33:10.370Z,2.44
2023-01-17T05:34:23.178Z,2.43
2023-01-17T05:35:24.918Z,2.38
2023-01-17T05:36:19.217Z,2.43
2023-01-17T05:39:09.212Z,2.35
2023-01-17T05:40:09.254Z,2.38
2023-01-17T05:41:09.184Z,2.54
2023-01-17T05:42:09.417Z,2.47
2023-01-17T05:43:09.522Z,2.53
2023-01-17T05:44:17.955Z,2.46
2023-01-17T05:45:11.765Z,2.56
2023-01-17T05:46:42.639Z,2.47
2023-01-17T05:47:37.055Z,2.46
2023-01-17T05:48:14.154Z,2.60
2023-01-17T05:49:10.151Z,2.64
2023-01-17T05:50:10.164Z,2.62
2023-01-17T05:51:10.319Z,2.54
2023-01-17T05:52:10.307Z,2.60
2023-01-17T05:53:10.367Z,2.51
2023-01-17T05:54:10.047Z,2.51
2023-01-17T05:55:10.722Z,2.49
2023-01-17T05:56:10.288Z,2.46
2023-01-17T05:57:10.383Z,2.57
2023-01-17T05:58:10.368Z,2.49
2023-01-17T05:59:11.092Z,2.62
2023-01-17T06:00:10.768Z,2.51
2023-01-17T06:01:10.154Z,2.50
2023-01-17T06:02:10.115Z,2.57
2023-01-17T06:03:10.093Z,2.67
2023-01-17T06:04:10.772Z,2.64
2023-01-17T06:05:10.301Z,2.62
2023-01-17T06:06:10.043Z,2.72
2023-01-17T06:07:10.068Z,2.65
2023-01-17T06:08:10.090Z,2.57
2023-01-17T06:09:10.091Z,2.61
2023-01-17T06:10:09.985Z,2.67
2023-01-17T06:11:10.030Z,2.56
2023-01-17T06:12:09.957Z,2.61
2023-01-17T06:13:09.898Z,2.69
2023-01-17T06:14:09.955Z,2.61
2023-01-17T06:15:09.915Z,2.53
2023-01-17T06:16:11.437Z,2.62
2023-01-17T06:17:30.188Z,2.60
2023-01-17T06:18:11.620Z,2.56
2023-01-17T06:19:10.005Z,2.69
2023-01-17T06:32:31.094Z,2.57
2023-01-17T06:33:31.151Z,2.46
2023-01-17T06:34:31.177Z,2.51
2023-01-17T06:35:31.148Z,2.51
2023-01-17T06:36:31.275Z,2.50
2023-01-17T06:37:31.005Z,2.54
2023-01-17T06:38:38.795Z,2.54
2023-01-17T06:39:31.130Z,2.51
2023-01-17T06:40:32.612Z,2.54
2023-01-17T06:41:32.892Z,2.51
2023-01-17T06:42:32.744Z,2.57
2023-01-17T06:43:32.454Z,2.61
2023-01-17T06:44:32.299Z,2.60
2023-01-17T06:45:32.256Z,2.57
2023-01-17T06:46:32.121Z,2.57
2023-01-17T06:47:32.337Z,2.67
2023-01-17T06:48:32.320Z,2.65
2023-01-17T06:49:32.235Z,2.61
2023-01-17T06:50:32.342Z,2.61
2023-01-17T06:51:32.227Z,2.56
2023-01-17T06:53:05.096Z,2.64
2023-01-17T06:54:06.134Z,2.64
2023-01-17T06:54:33.853Z,2.57
2023-01-17T06:56:11.475Z,2.50
2023-01-17T06:57:16.105Z,2.56
2023-01-17T06:57:35.448Z,2.47
2023-01-17T06:59:02.067Z,2.49
2023-01-17T06:59:34.387Z,2.51
2023-01-17T07:00:32.033Z,2.36
2023-01-17T07:01:32.167Z,2.44
2023-01-17T07:02:32.241Z,2.53
2023-01-17T07:03:32.055Z,2.44
2023-01-17T07:04:32.154Z,2.39
2023-01-17T07:05:32.371Z,2.42
2023-01-17T07:07:05.685Z,2.43
2023-01-17T07:07:37.773Z,2.36
2023-01-17T07:09:02.312Z,2.31
2023-01-17T07:09:33.561Z,2.25
2023-01-17T07:11:10.479Z,2.36
2023-01-17T07:11:32.684Z,2.29
2023-01-17T07:13:10.233Z,2.25
2023-01-17T07:13:34.824Z,2.35
2023-01-17T07:14:32.363Z,2.32
2023-01-17T07:15:32.620Z,2.38
2023-01-17T07:16:56.304Z,2.35
2023-01-17T07:17:33.286Z,2.25
2023-01-17T07:18:33.530Z,2.25
2023-01-17T07:19:32.825Z,2.35
2023-01-17T07:20:46.665Z,2.28
2023-01-17T07:21:33.601Z,2.25
2023-01-17T07:22:32.159Z,2.13
2023-01-17T07:23:31.810Z,2.18
2023-01-17T07:24:32.280Z,2.17
2023-01-17T07:25:59.783Z,2.14
2023-01-17T07:27:07.115Z,2.11
2023-01-17T07:28:00.058Z,2.22
2023-01-17T07:28:32.223Z,2.18
2023-01-17T07:29:32.413Z,2.18
2023-01-17T07:30:31.889Z,2.20
2023-01-17T07:31:31.996Z,2.29
2023-01-17T07:32:31.875Z,2.14
2023-01-17T07:33:32.012Z,2.13
2023-01-17T07:34:31.883Z,2.13
2023-01-17T07:35:53.555Z,2.14
2023-01-17T07:37:05.300Z,2.13
2023-01-17T07:37:31.959Z,2.13
2023-01-17T07:38:58.297Z,2.00
2023-01-17T07:40:04.884Z,2.00
2023-01-17T07:41:09.860Z,2.00
2023-01-17T07:41:31.990Z,1.89
2023-01-17T07:42:39.246Z,1.91
2023-01-17T07:43:32.631Z,1.85
2023-01-17T07:44:33.476Z,1.78
2023-01-17T07:45:34.026Z,1.84
2023-01-17T07:46:31.966Z,1.80
2023-01-17T07:47:31.930Z,1.73
2023-01-17T07:48:31.859Z,1.84
2023-01-17T07:49:32.411Z,1.92
2023-01-17T07:50:31.546Z,1.81
2023-01-17T07:51:31.706Z,1.74
2023-01-17T07:52:32.083Z,1.87
2023-01-17T07:53:32.682Z,1.85
2023-01-17T07:54:31.969Z,1.78
2023-01-17T07:55:32.310Z,1.78
2023-01-17T07:56:31.447Z,1.76
2023-01-17T07:58:05.526Z,1.76
2023-01-17T07:58:31.910Z,1.81
2023-01-17T07:59:32.070Z,1.76
2023-01-17T08:00:31.832Z,1.80
2023-01-17T08:02:06.805Z,1.85
2023-01-17T08:02:32.173Z,1.89
2023-01-17T08:04:04.052Z,1.76
2023-01-17T08:04:32.116Z,1.80
2023-01-17T08:05:31.485Z,1.94
2023-01-17T08:06:31.515Z,1.88
2023-01-17T08:07:31.625Z,1.85
2023-01-17T08:08:31.622Z,1.88
2023-01-17T08:09:31.498Z,1.88
2023-01-17T08:10:31.334Z,1.92
2023-01-17T08:11:31.525Z,1.91
2023-01-17T08:12:31.470Z,1.89
2023-01-17T08:13:31.989Z,1.94
2023-01-17T08:14:31.761Z,1.87
2023-01-17T08:15:31.504Z,1.89
2023-01-17T08:16:31.955Z,1.87
2023-01-17T08:17:31.572Z,1.91
2023-01-17T08:18:31.250Z,1.89
2023-01-17T08:19:31.905Z,1.88
2023-01-17T08:20:31.750Z,1.91
2023-01-17T08:21:31.721Z,1.92
2023-01-17T08:22:31.472Z,1.92
2023-01-17T08:24:10.545Z,1.99
2023-01-17T08:24:31.713Z,1.91
2023-01-17T08:25:31.481Z,1.89
2023-01-17T08:26:31.301Z,1.95
2023-01-17T08:27:31.152Z,2.04
2023-01-17T08:28:32.340Z,2.07
2023-01-17T08:29:31.931Z,2.04
2023-01-17T08:30:32.096Z,2.15
2023-01-17T08:31:31.555Z,2.10
2023-01-17T08:32:31.380Z,2.18
2023-01-17T08:33:31.769Z,2.14
2023-01-17T08:34:31.382Z,2.18
2023-01-17T08:35:32.139Z,2.18
2023-01-17T08:36:32.477Z,2.17
2023-01-17T08:37:32.056Z,2.28
2023-01-17T08:38:31.453Z,2.42
2023-01-17T08:39:31.077Z,2.43
2023-01-17T08:40:31.502Z,2.35
2023-01-17T08:41:31.921Z,2.25
2023-01-17T08:42:31.442Z,2.29
2023-01-17T08:43:31.300Z,2.31
2023-01-17T08:44:31.179Z,2.29
2023-01-17T08:45:32.989Z,2.31
2023-01-17T08:46:32.856Z,2.28
2023-01-17T08:47:36.860Z,2.28
2023-01-17T08:48:38.325Z,2.35
2023-01-17T08:49:33.978Z,2.31
2023-01-17T08:50:31.556Z,2.33
2023-01-17T08:51:31.222Z,2.31
2023-01-17T08:53:10.195Z,2.29
2023-01-17T08:53:33.538Z,2.25
2023-01-17T08:54:44.551Z,2.28
2023-01-17T08:55:36.754Z,2.25
2023-01-17T08:56:36.923Z,2.29
2023-01-17T08:57:49.793Z,2.29
2023-01-17T08:58:51.536Z,2.18
2023-01-17T08:59:35.377Z,2.31
2023-01-17T09:01:00.382Z,2.24
2023-01-17T09:01:34.175Z,2.08
2023-01-17T09:02:33.314Z,1.99
2023-01-17T09:03:50.483Z,1.99
2023-01-17T09:04:32.335Z,1.91
2023-01-17T09:07:31.485Z,1.84
2023-01-17T09:08:31.439Z,1.80
2023-01-17T09:09:40.201Z,1.73
2023-01-17T09:10:35.526Z,1.81
2023-01-17T09:11:38.734Z,1.76
2023-01-17T09:13:38.261Z,1.74
2023-01-17T09:13:42.481Z,1.71
2023-01-17T09:14:42.948Z,1.70
2023-01-17T09:16:16.042Z,1.56
2023-01-17T09:20:08.127Z,1.62
2023-01-17T09:21:22.040Z,1.63
